sensor_id;sensor_type;location;lat;lon;timestamp;temperature;humidity
72814;DHT22;60945;48.516;-2.768;2022-07-10T00:00:32;18.70;72.10
72814;DHT22;60945;48.516;-2.768;2022-07-10T00:02:58;18.70;72.20
72814;DHT22;60945;48.516;-2.768;2022-07-10T00:05:25;18.70;72.40
72814;DHT22;60945;48.516;-2.768;2022-07-10T00:07:51;18.60;72.50
72814;DHT22;60945;48.516;-2.768;2022-07-10T00:10:20;18.60;72.60
72814;DHT22;60945;48.516;-2.768;2022-07-10T00:12:47;18.60;72.50
72814;DHT22;60945;48.516;-2.768;2022-07-10T00:15:14;18.60;72.40
72814;DHT22;60945;48.516;-2.768;2022-07-10T00:17:42;18.60;72.60
72814;DHT22;60945;48.516;-2.768;2022-07-10T00:20:09;18.60;72.40
72814;DHT22;60945;48.516;-2.768;2022-07-10T00:22:36;18.60;72.50
72814;DHT22;60945;48.516;-2.768;2022-07-10T00:25:06;18.60;72.40
72814;DHT22;60945;48.516;-2.768;2022-07-10T00:27:32;18.60;72.30
72814;DHT22;60945;48.516;-2.768;2022-07-10T00:29:58;18.50;72.60
72814;DHT22;60945;48.516;-2.768;2022-07-10T00:32:24;18.50;72.50
72814;DHT22;60945;48.516;-2.768;2022-07-10T00:34:50;18.50;72.60
72814;DHT22;60945;48.516;-2.768;2022-07-10T00:37:16;18.50;72.70
72814;DHT22;60945;48.516;-2.768;2022-07-10T00:39:42;18.50;72.50
72814;DHT22;60945;48.516;-2.768;2022-07-10T00:42:08;18.50;72.70
72814;DHT22;60945;48.516;-2.768;2022-07-10T00:44:34;18.40;72.70
72814;DHT22;60945;48.516;-2.768;2022-07-10T00:47:01;18.40;72.60
72814;DHT22;60945;48.516;-2.768;2022-07-10T00:49:27;18.40;73.10
72814;DHT22;60945;48.516;-2.768;2022-07-10T00:51:53;18.40;72.90
72814;DHT22;60945;48.516;-2.768;2022-07-10T00:54:19;18.40;72.90
72814;DHT22;60945;48.516;-2.768;2022-07-10T00:56:45;18.40;72.70
72814;DHT22;60945;48.516;-2.768;2022-07-10T00:59:11;18.40;73.00
72814;DHT22;60945;48.516;-2.768;2022-07-10T01:01:36;18.30;73.40
72814;DHT22;60945;48.516;-2.768;2022-07-10T01:04:02;18.30;73.30
72814;DHT22;60945;48.516;-2.768;2022-07-10T01:06:28;18.30;73.50
72814;DHT22;60945;48.516;-2.768;2022-07-10T01:08:54;18.30;73.50
72814;DHT22;60945;48.516;-2.768;2022-07-10T01:11:20;18.20;73.60
72814;DHT22;60945;48.516;-2.768;2022-07-10T01:13:47;18.20;73.60
72814;DHT22;60945;48.516;-2.768;2022-07-10T01:16:16;18.20;73.70
72814;DHT22;60945;48.516;-2.768;2022-07-10T01:18:42;18.20;73.60
72814;DHT22;60945;48.516;-2.768;2022-07-10T01:23:53;18.20;74.40
72814;DHT22;60945;48.516;-2.768;2022-07-10T01:26:20;18.10;74.00
72814;DHT22;60945;48.516;-2.768;2022-07-10T01:28:51;18.20;74.10
72814;DHT22;60945;48.516;-2.768;2022-07-10T01:31:25;18.10;74.40
72814;DHT22;60945;48.516;-2.768;2022-07-10T01:33:52;18.10;74.40
72814;DHT22;60945;48.516;-2.768;2022-07-10T01:36:19;18.00;74.40
72814;DHT22;60945;48.516;-2.768;2022-07-10T01:38:46;18.00;75.00
72814;DHT22;60945;48.516;-2.768;2022-07-10T01:41:12;18.00;75.10
72814;DHT22;60945;48.516;-2.768;2022-07-10T01:43:38;18.00;75.00
72814;DHT22;60945;48.516;-2.768;2022-07-10T01:46:08;18.00;75.30
72814;DHT22;60945;48.516;-2.768;2022-07-10T01:48:37;17.90;75.40
72814;DHT22;60945;48.516;-2.768;2022-07-10T01:51:03;17.90;75.60
72814;DHT22;60945;48.516;-2.768;2022-07-10T01:53:29;17.90;75.80
72814;DHT22;60945;48.516;-2.768;2022-07-10T01:55:55;17.90;75.70
72814;DHT22;60945;48.516;-2.768;2022-07-10T01:58:21;17.90;75.60
72814;DHT22;60945;48.516;-2.768;2022-07-10T02:00:47;17.90;76.10
72814;DHT22;60945;48.516;-2.768;2022-07-10T02:03:15;17.90;75.90
72814;DHT22;60945;48.516;-2.768;2022-07-10T02:05:59;17.90;76.40
72814;DHT22;60945;48.516;-2.768;2022-07-10T02:08:25;17.90;76.30
72814;DHT22;60945;48.516;-2.768;2022-07-10T02:10:51;17.80;76.30
72814;DHT22;60945;48.516;-2.768;2022-07-10T02:13:16;17.90;76.30
72814;DHT22;60945;48.516;-2.768;2022-07-10T02:15:46;17.90;76.40
72814;DHT22;60945;48.516;-2.768;2022-07-10T02:18:12;17.80;76.70
72814;DHT22;60945;48.516;-2.768;2022-07-10T02:20:37;17.80;76.90
72814;DHT22;60945;48.516;-2.768;2022-07-10T02:23:03;17.80;76.90
72814;DHT22;60945;48.516;-2.768;2022-07-10T02:25:29;17.80;76.70
72814;DHT22;60945;48.516;-2.768;2022-07-10T02:27:54;17.80;76.80
72814;DHT22;60945;48.516;-2.768;2022-07-10T02:30:20;17.80;76.90
72814;DHT22;60945;48.516;-2.768;2022-07-10T02:32:45;17.80;76.80
72814;DHT22;60945;48.516;-2.768;2022-07-10T02:35:11;17.80;76.90
72814;DHT22;60945;48.516;-2.768;2022-07-10T02:37:37;17.80;77.00
72814;DHT22;60945;48.516;-2.768;2022-07-10T02:40:02;17.80;76.90
72814;DHT22;60945;48.516;-2.768;2022-07-10T02:42:28;17.80;76.90
72814;DHT22;60945;48.516;-2.768;2022-07-10T02:44:54;17.70;77.00
72814;DHT22;60945;48.516;-2.768;2022-07-10T02:47:19;17.70;77.10
72814;DHT22;60945;48.516;-2.768;2022-07-10T02:49:45;17.70;77.40
72814;DHT22;60945;48.516;-2.768;2022-07-10T02:52:10;17.70;77.40
72814;DHT22;60945;48.516;-2.768;2022-07-10T02:54:37;17.70;77.40
72814;DHT22;60945;48.516;-2.768;2022-07-10T02:57:03;17.70;77.40
72814;DHT22;60945;48.516;-2.768;2022-07-10T02:59:29;17.70;77.40
72814;DHT22;60945;48.516;-2.768;2022-07-10T03:01:55;17.70;77.50
72814;DHT22;60945;48.516;-2.768;2022-07-10T03:04:20;17.70;77.40
72814;DHT22;60945;48.516;-2.768;2022-07-10T03:06:46;17.70;77.40
72814;DHT22;60945;48.516;-2.768;2022-07-10T03:09:11;17.70;78.30
72814;DHT22;60945;48.516;-2.768;2022-07-10T03:11:37;17.60;78.30
72814;DHT22;60945;48.516;-2.768;2022-07-10T03:14:03;17.60;78.40
72814;DHT22;60945;48.516;-2.768;2022-07-10T03:16:29;17.60;78.70
72814;DHT22;60945;48.516;-2.768;2022-07-10T03:18:54;17.60;79.00
72814;DHT22;60945;48.516;-2.768;2022-07-10T03:21:20;17.60;79.20
72814;DHT22;60945;48.516;-2.768;2022-07-10T03:23:46;17.60;79.10
72814;DHT22;60945;48.516;-2.768;2022-07-10T03:26:11;17.60;79.30
72814;DHT22;60945;48.516;-2.768;2022-07-10T03:28:37;17.60;79.50
72814;DHT22;60945;48.516;-2.768;2022-07-10T03:31:02;17.60;79.40
72814;DHT22;60945;48.516;-2.768;2022-07-10T03:33:28;17.60;79.60
72814;DHT22;60945;48.516;-2.768;2022-07-10T03:35:54;17.60;79.90
72814;DHT22;60945;48.516;-2.768;2022-07-10T03:38:20;17.60;80.20
72814;DHT22;60945;48.516;-2.768;2022-07-10T03:40:45;17.60;80.10
72814;DHT22;60945;48.516;-2.768;2022-07-10T03:43:14;17.60;80.40
72814;DHT22;60945;48.516;-2.768;2022-07-10T03:45:40;17.60;80.30
72814;DHT22;60945;48.516;-2.768;2022-07-10T03:48:05;17.60;80.60
72814;DHT22;60945;48.516;-2.768;2022-07-10T03:50:31;17.60;80.50
72814;DHT22;60945;48.516;-2.768;2022-07-10T03:52:56;17.60;80.70
72814;DHT22;60945;48.516;-2.768;2022-07-10T03:55:22;17.60;80.60
72814;DHT22;60945;48.516;-2.768;2022-07-10T03:57:48;17.50;80.40
72814;DHT22;60945;48.516;-2.768;2022-07-10T04:00:23;17.60;80.50
72814;DHT22;60945;48.516;-2.768;2022-07-10T04:02:56;17.60;80.30
72814;DHT22;60945;48.516;-2.768;2022-07-10T04:05:21;17.60;80.90
72814;DHT22;60945;48.516;-2.768;2022-07-10T04:07:47;17.60;80.00
72814;DHT22;60945;48.516;-2.768;2022-07-10T04:10:13;17.50;80.00
72814;DHT22;60945;48.516;-2.768;2022-07-10T04:12:38;17.50;79.70
72814;DHT22;60945;48.516;-2.768;2022-07-10T04:15:04;17.50;79.70
72814;DHT22;60945;48.516;-2.768;2022-07-10T04:17:30;17.50;79.40
72814;DHT22;60945;48.516;-2.768;2022-07-10T04:19:58;17.50;79.40
72814;DHT22;60945;48.516;-2.768;2022-07-10T04:22:24;17.50;79.30
72814;DHT22;60945;48.516;-2.768;2022-07-10T04:24:56;17.50;79.30
72814;DHT22;60945;48.516;-2.768;2022-07-10T04:27:21;17.50;79.40
72814;DHT22;60945;48.516;-2.768;2022-07-10T04:29:47;17.40;79.40
72814;DHT22;60945;48.516;-2.768;2022-07-10T04:32:14;17.40;79.30
72814;DHT22;60945;48.516;-2.768;2022-07-10T04:34:39;17.50;79.30
72814;DHT22;60945;48.516;-2.768;2022-07-10T04:37:05;17.50;79.30
72814;DHT22;60945;48.516;-2.768;2022-07-10T04:39:36;17.50;79.30
72814;DHT22;60945;48.516;-2.768;2022-07-10T04:42:03;17.50;79.40
72814;DHT22;60945;48.516;-2.768;2022-07-10T04:44:29;17.50;79.50
72814;DHT22;60945;48.516;-2.768;2022-07-10T04:46:55;17.60;79.50
72814;DHT22;60945;48.516;-2.768;2022-07-10T04:49:20;17.60;79.30
72814;DHT22;60945;48.516;-2.768;2022-07-10T04:51:46;17.70;79.30
72814;DHT22;60945;48.516;-2.768;2022-07-10T04:54:12;17.70;79.30
72814;DHT22;60945;48.516;-2.768;2022-07-10T04:56:37;17.70;79.20
72814;DHT22;60945;48.516;-2.768;2022-07-10T04:59:03;17.70;79.20
72814;DHT22;60945;48.516;-2.768;2022-07-10T05:01:29;17.70;79.30
72814;DHT22;60945;48.516;-2.768;2022-07-10T05:03:54;17.80;79.20
72814;DHT22;60945;48.516;-2.768;2022-07-10T05:06:20;17.80;79.10
72814;DHT22;60945;48.516;-2.768;2022-07-10T05:08:46;17.80;79.00
72814;DHT22;60945;48.516;-2.768;2022-07-10T05:11:11;17.80;79.00
72814;DHT22;60945;48.516;-2.768;2022-07-10T05:13:37;17.90;78.90
72814;DHT22;60945;48.516;-2.768;2022-07-10T05:16:04;17.90;78.70
72814;DHT22;60945;48.516;-2.768;2022-07-10T05:18:30;17.90;78.70
72814;DHT22;60945;48.516;-2.768;2022-07-10T05:20:55;17.90;78.60
72814;DHT22;60945;48.516;-2.768;2022-07-10T05:23:21;17.90;78.40
72814;DHT22;60945;48.516;-2.768;2022-07-10T05:25:47;17.90;78.00
72814;DHT22;60945;48.516;-2.768;2022-07-10T05:28:12;18.00;77.90
72814;DHT22;60945;48.516;-2.768;2022-07-10T05:30:40;18.00;77.60
72814;DHT22;60945;48.516;-2.768;2022-07-10T05:33:06;18.10;77.60
72814;DHT22;60945;48.516;-2.768;2022-07-10T05:35:31;18.10;77.40
72814;DHT22;60945;48.516;-2.768;2022-07-10T05:37:57;18.20;77.20
72814;DHT22;60945;48.516;-2.768;2022-07-10T05:40:23;18.10;77.30
72814;DHT22;60945;48.516;-2.768;2022-07-10T05:42:49;18.20;77.10
72814;DHT22;60945;48.516;-2.768;2022-07-10T05:45:15;18.20;76.90
72814;DHT22;60945;48.516;-2.768;2022-07-10T05:47:40;18.20;76.90
72814;DHT22;60945;48.516;-2.768;2022-07-10T05:50:06;18.20;76.80
72814;DHT22;60945;48.516;-2.768;2022-07-10T05:52:32;18.30;76.80
72814;DHT22;60945;48.516;-2.768;2022-07-10T05:54:58;18.30;76.90
72814;DHT22;60945;48.516;-2.768;2022-07-10T05:57:25;18.40;76.70
72814;DHT22;60945;48.516;-2.768;2022-07-10T05:59:51;18.40;76.70
72814;DHT22;60945;48.516;-2.768;2022-07-10T06:02:16;18.30;76.80
72814;DHT22;60945;48.516;-2.768;2022-07-10T06:04:42;18.40;76.50
72814;DHT22;60945;48.516;-2.768;2022-07-10T06:07:08;18.50;76.40
72814;DHT22;60945;48.516;-2.768;2022-07-10T06:09:34;18.50;76.10
72814;DHT22;60945;48.516;-2.768;2022-07-10T06:12:00;18.50;76.00
72814;DHT22;60945;48.516;-2.768;2022-07-10T06:14:26;18.50;76.20
72814;DHT22;60945;48.516;-2.768;2022-07-10T06:16:51;18.50;75.90
72814;DHT22;60945;48.516;-2.768;2022-07-10T06:19:17;18.60;75.70
72814;DHT22;60945;48.516;-2.768;2022-07-10T06:21:44;18.70;75.50
72814;DHT22;60945;48.516;-2.768;2022-07-10T06:24:09;18.70;75.10
72814;DHT22;60945;48.516;-2.768;2022-07-10T06:26:35;18.70;74.90
72814;DHT22;60945;48.516;-2.768;2022-07-10T06:29:01;18.80;74.30
72814;DHT22;60945;48.516;-2.768;2022-07-10T06:31:26;18.80;74.10
72814;DHT22;60945;48.516;-2.768;2022-07-10T06:33:52;18.90;74.00
72814;DHT22;60945;48.516;-2.768;2022-07-10T06:36:18;19.00;73.90
72814;DHT22;60945;48.516;-2.768;2022-07-10T06:38:43;19.00;73.40
72814;DHT22;60945;48.516;-2.768;2022-07-10T06:41:10;19.00;73.10
72814;DHT22;60945;48.516;-2.768;2022-07-10T06:43:35;19.10;72.90
72814;DHT22;60945;48.516;-2.768;2022-07-10T06:46:01;19.10;72.20
72814;DHT22;60945;48.516;-2.768;2022-07-10T06:48:27;19.20;71.70
72814;DHT22;60945;48.516;-2.768;2022-07-10T06:50:53;19.20;71.10
72814;DHT22;60945;48.516;-2.768;2022-07-10T06:53:19;19.20;70.80
72814;DHT22;60945;48.516;-2.768;2022-07-10T06:55:50;19.30;70.70
72814;DHT22;60945;48.516;-2.768;2022-07-10T06:58:16;19.40;70.30
72814;DHT22;60945;48.516;-2.768;2022-07-10T07:00:41;19.40;69.50
72814;DHT22;60945;48.516;-2.768;2022-07-10T07:03:07;19.50;68.70
72814;DHT22;60945;48.516;-2.768;2022-07-10T07:05:33;19.60;68.50
72814;DHT22;60945;48.516;-2.768;2022-07-10T07:07:59;19.50;67.80
72814;DHT22;60945;48.516;-2.768;2022-07-10T07:10:24;19.50;68.10
72814;DHT22;60945;48.516;-2.768;2022-07-10T07:12:50;19.50;67.80
72814;DHT22;60945;48.516;-2.768;2022-07-10T07:15:16;19.60;67.20
72814;DHT22;60945;48.516;-2.768;2022-07-10T07:17:42;19.70;66.20
72814;DHT22;60945;48.516;-2.768;2022-07-10T07:20:34;19.70;65.60
72814;DHT22;60945;48.516;-2.768;2022-07-10T07:23:22;19.80;64.80
72814;DHT22;60945;48.516;-2.768;2022-07-10T07:25:47;19.80;64.10
72814;DHT22;60945;48.516;-2.768;2022-07-10T07:28:15;19.90;62.50
72814;DHT22;60945;48.516;-2.768;2022-07-10T07:30:42;20.00;62.90
72814;DHT22;60945;48.516;-2.768;2022-07-10T07:33:08;20.00;62.50
72814;DHT22;60945;48.516;-2.768;2022-07-10T07:35:33;20.10;62.10
72814;DHT22;60945;48.516;-2.768;2022-07-10T07:38:01;20.10;61.00
72814;DHT22;60945;48.516;-2.768;2022-07-10T07:40:27;20.10;59.10
72814;DHT22;60945;48.516;-2.768;2022-07-10T07:42:54;20.20;56.80
72814;DHT22;60945;48.516;-2.768;2022-07-10T07:45:21;20.20;55.60
72814;DHT22;60945;48.516;-2.768;2022-07-10T07:47:52;20.20;54.10
72814;DHT22;60945;48.516;-2.768;2022-07-10T07:50:20;20.20;53.20
72814;DHT22;60945;48.516;-2.768;2022-07-10T07:52:47;20.30;53.00
72814;DHT22;60945;48.516;-2.768;2022-07-10T07:55:14;20.40;52.60
72814;DHT22;60945;48.516;-2.768;2022-07-10T07:57:41;20.50;52.40
72814;DHT22;60945;48.516;-2.768;2022-07-10T08:00:08;20.40;51.70
72814;DHT22;60945;48.516;-2.768;2022-07-10T08:02:35;20.50;51.60
72814;DHT22;60945;48.516;-2.768;2022-07-10T08:05:01;20.60;51.00
72814;DHT22;60945;48.516;-2.768;2022-07-10T08:07:37;20.70;50.00
72814;DHT22;60945;48.516;-2.768;2022-07-10T08:10:04;20.70;48.50
72814;DHT22;60945;48.516;-2.768;2022-07-10T08:12:30;21.00;48.70
72814;DHT22;60945;48.516;-2.768;2022-07-10T08:14:56;21.20;47.40
72814;DHT22;60945;48.516;-2.768;2022-07-10T08:17:21;21.50;46.50
72814;DHT22;60945;48.516;-2.768;2022-07-10T08:19:47;21.90;45.70
72814;DHT22;60945;48.516;-2.768;2022-07-10T08:22:13;22.10;44.70
72814;DHT22;60945;48.516;-2.768;2022-07-10T08:24:39;22.50;44.40
72814;DHT22;60945;48.516;-2.768;2022-07-10T08:27:05;22.90;43.50
72814;DHT22;60945;48.516;-2.768;2022-07-10T08:29:33;23.20;42.80
72814;DHT22;60945;48.516;-2.768;2022-07-10T08:31:58;23.50;41.90
72814;DHT22;60945;48.516;-2.768;2022-07-10T08:34:25;23.80;41.00
72814;DHT22;60945;48.516;-2.768;2022-07-10T08:36:51;24.00;39.20
72814;DHT22;60945;48.516;-2.768;2022-07-10T08:39:17;24.10;38.80
72814;DHT22;60945;48.516;-2.768;2022-07-10T08:41:47;24.40;38.40
72814;DHT22;60945;48.516;-2.768;2022-07-10T08:44:16;24.70;37.90
72814;DHT22;60945;48.516;-2.768;2022-07-10T08:46:42;24.70;37.00
72814;DHT22;60945;48.516;-2.768;2022-07-10T08:49:09;24.90;37.00
72814;DHT22;60945;48.516;-2.768;2022-07-10T08:54:28;25.40;35.70
72814;DHT22;60945;48.516;-2.768;2022-07-10T08:56:57;25.50;35.80
72814;DHT22;60945;48.516;-2.768;2022-07-10T08:59:23;25.70;35.80
72814;DHT22;60945;48.516;-2.768;2022-07-10T09:01:49;25.90;35.20
72814;DHT22;60945;48.516;-2.768;2022-07-10T09:04:16;26.00;35.10
72814;DHT22;60945;48.516;-2.768;2022-07-10T09:06:43;26.30;33.80
72814;DHT22;60945;48.516;-2.768;2022-07-10T09:09:09;26.40;32.90
72814;DHT22;60945;48.516;-2.768;2022-07-10T09:11:36;26.50;32.70
72814;DHT22;60945;48.516;-2.768;2022-07-10T09:14:06;27.00;32.30
72814;DHT22;60945;48.516;-2.768;2022-07-10T09:16:39;26.70;32.40
72814;DHT22;60945;48.516;-2.768;2022-07-10T09:19:26;26.90;32.50
72814;DHT22;60945;48.516;-2.768;2022-07-10T09:21:55;26.90;31.90
72814;DHT22;60945;48.516;-2.768;2022-07-10T09:24:21;27.30;32.00
72814;DHT22;60945;48.516;-2.768;2022-07-10T09:26:59;27.60;31.70
72814;DHT22;60945;48.516;-2.768;2022-07-10T09:29:26;27.40;31.10
72814;DHT22;60945;48.516;-2.768;2022-07-10T09:31:53;27.70;30.30
72814;DHT22;60945;48.516;-2.768;2022-07-10T09:34:38;27.90;30.40
72814;DHT22;60945;48.516;-2.768;2022-07-10T09:37:19;28.50;29.90
72814;DHT22;60945;48.516;-2.768;2022-07-10T09:39:59;28.60;29.50
72814;DHT22;60945;48.516;-2.768;2022-07-10T09:42:29;28.90;29.40
72814;DHT22;60945;48.516;-2.768;2022-07-10T09:47:52;28.80;33.00
72814;DHT22;60945;48.516;-2.768;2022-07-10T09:50:32;28.80;34.30
72814;DHT22;60945;48.516;-2.768;2022-07-10T09:53:03;29.20;33.50
72814;DHT22;60945;48.516;-2.768;2022-07-10T09:55:31;29.30;33.50
72814;DHT22;60945;48.516;-2.768;2022-07-10T09:58:05;29.20;34.00
72814;DHT22;60945;48.516;-2.768;2022-07-10T10:00:33;29.60;34.00
72814;DHT22;60945;48.516;-2.768;2022-07-10T10:03:01;29.80;34.60
72814;DHT22;60945;48.516;-2.768;2022-07-10T10:08:00;30.10;35.20
72814;DHT22;60945;48.516;-2.768;2022-07-10T10:10:28;30.30;35.30
72814;DHT22;60945;48.516;-2.768;2022-07-10T10:12:58;30.70;34.80
72814;DHT22;60945;48.516;-2.768;2022-07-10T10:15:26;30.60;34.90
72814;DHT22;60945;48.516;-2.768;2022-07-10T10:17:52;31.30;34.40
72814;DHT22;60945;48.516;-2.768;2022-07-10T10:20:20;31.40;34.20
72814;DHT22;60945;48.516;-2.768;2022-07-10T10:23:09;31.70;33.80
72814;DHT22;60945;48.516;-2.768;2022-07-10T10:25:37;32.80;32.10
72814;DHT22;60945;48.516;-2.768;2022-07-10T10:28:05;33.30;31.40
72814;DHT22;60945;48.516;-2.768;2022-07-10T10:30:32;33.10;31.80
72814;DHT22;60945;48.516;-2.768;2022-07-10T10:32:58;32.90;32.20
72814;DHT22;60945;48.516;-2.768;2022-07-10T10:35:45;33.30;31.60
72814;DHT22;60945;48.516;-2.768;2022-07-10T10:38:14;32.80;32.10
72814;DHT22;60945;48.516;-2.768;2022-07-10T10:40:41;33.30;31.90
72814;DHT22;60945;48.516;-2.768;2022-07-10T10:43:20;33.50;31.70
72814;DHT22;60945;48.516;-2.768;2022-07-10T10:45:50;33.60;30.70
72814;DHT22;60945;48.516;-2.768;2022-07-10T10:48:17;34.30;29.50
72814;DHT22;60945;48.516;-2.768;2022-07-10T10:50:53;35.40;29.00
72814;DHT22;60945;48.516;-2.768;2022-07-10T10:53:22;36.20;27.70
72814;DHT22;60945;48.516;-2.768;2022-07-10T10:58:44;37.20;28.10
72814;DHT22;60945;48.516;-2.768;2022-07-10T11:01:23;36.70;27.20
72814;DHT22;60945;48.516;-2.768;2022-07-10T11:06:40;37.20;26.60
72814;DHT22;60945;48.516;-2.768;2022-07-10T11:09:33;37.20;26.90
72814;DHT22;60945;48.516;-2.768;2022-07-10T11:12:05;38.10;25.80
72814;DHT22;60945;48.516;-2.768;2022-07-10T11:14:33;38.70;25.40
72814;DHT22;60945;48.516;-2.768;2022-07-10T11:17:00;39.80;23.90
72814;DHT22;60945;48.516;-2.768;2022-07-10T11:19:27;39.50;24.00
72814;DHT22;60945;48.516;-2.768;2022-07-10T11:25:31;39.70;22.80
72814;DHT22;60945;48.516;-2.768;2022-07-10T11:28:05;39.80;23.20
72814;DHT22;60945;48.516;-2.768;2022-07-10T11:30:54;39.70;23.70
72814;DHT22;60945;48.516;-2.768;2022-07-10T11:33:24;41.00;22.50
72814;DHT22;60945;48.516;-2.768;2022-07-10T11:35:51;40.50;22.50
72814;DHT22;60945;48.516;-2.768;2022-07-10T11:38:24;40.70;22.30
72814;DHT22;60945;48.516;-2.768;2022-07-10T11:40:51;40.80;21.70
72814;DHT22;60945;48.516;-2.768;2022-07-10T11:43:19;40.50;22.20
72814;DHT22;60945;48.516;-2.768;2022-07-10T11:45:47;40.10;22.40
72814;DHT22;60945;48.516;-2.768;2022-07-10T11:48:22;40.40;21.90
72814;DHT22;60945;48.516;-2.768;2022-07-10T11:50:49;42.00;21.10
72814;DHT22;60945;48.516;-2.768;2022-07-10T11:53:25;42.60;20.60
72814;DHT22;60945;48.516;-2.768;2022-07-10T11:55:51;43.30;19.50
72814;DHT22;60945;48.516;-2.768;2022-07-10T11:58:18;43.30;20.00
72814;DHT22;60945;48.516;-2.768;2022-07-10T12:00:57;43.00;20.10
72814;DHT22;60945;48.516;-2.768;2022-07-10T12:03:24;43.70;19.80
72814;DHT22;60945;48.516;-2.768;2022-07-10T12:05:49;44.90;19.00
72814;DHT22;60945;48.516;-2.768;2022-07-10T12:08:17;44.70;19.00
72814;DHT22;60945;48.516;-2.768;2022-07-10T12:10:42;44.00;19.30
72814;DHT22;60945;48.516;-2.768;2022-07-10T12:13:15;44.30;18.10
72814;DHT22;60945;48.516;-2.768;2022-07-10T12:15:45;44.40;18.30
72814;DHT22;60945;48.516;-2.768;2022-07-10T12:18:21;45.30;18.40
72814;DHT22;60945;48.516;-2.768;2022-07-10T12:20:48;44.80;18.50
72814;DHT22;60945;48.516;-2.768;2022-07-10T12:23:16;44.30;19.30
72814;DHT22;60945;48.516;-2.768;2022-07-10T12:25:43;45.30;18.90
72814;DHT22;60945;48.516;-2.768;2022-07-10T12:28:09;47.60;17.80
72814;DHT22;60945;48.516;-2.768;2022-07-10T12:30:44;48.70;17.00
72814;DHT22;60945;48.516;-2.768;2022-07-10T12:35:54;48.80;17.10
72814;DHT22;60945;48.516;-2.768;2022-07-10T12:38:25;50.10;16.00
72814;DHT22;60945;48.516;-2.768;2022-07-10T12:41:09;49.20;16.80
72814;DHT22;60945;48.516;-2.768;2022-07-10T12:43:35;49.90;16.30
72814;DHT22;60945;48.516;-2.768;2022-07-10T12:46:17;49.70;16.60
72814;DHT22;60945;48.516;-2.768;2022-07-10T12:49:01;48.40;16.80
72814;DHT22;60945;48.516;-2.768;2022-07-10T12:51:29;46.30;17.80
72814;DHT22;60945;48.516;-2.768;2022-07-10T12:53:55;45.10;18.80
72814;DHT22;60945;48.516;-2.768;2022-07-10T12:56:37;45.20;18.90
72814;DHT22;60945;48.516;-2.768;2022-07-10T12:59:13;43.80;19.50
72814;DHT22;60945;48.516;-2.768;2022-07-10T13:01:43;44.60;19.50
72814;DHT22;60945;48.516;-2.768;2022-07-10T13:04:10;45.70;18.50
72814;DHT22;60945;48.516;-2.768;2022-07-10T13:06:37;47.10;18.00
72814;DHT22;60945;48.516;-2.768;2022-07-10T13:09:21;48.50;17.20
72814;DHT22;60945;48.516;-2.768;2022-07-10T13:11:48;49.00;16.90
72814;DHT22;60945;48.516;-2.768;2022-07-10T13:14:14;48.80;16.80
72814;DHT22;60945;48.516;-2.768;2022-07-10T13:16:39;49.20;16.60
72814;DHT22;60945;48.516;-2.768;2022-07-10T13:19:05;50.00;15.80
72814;DHT22;60945;48.516;-2.768;2022-07-10T13:21:31;50.40;15.90
72814;DHT22;60945;48.516;-2.768;2022-07-10T13:23:56;51.00;15.60
72814;DHT22;60945;48.516;-2.768;2022-07-10T13:26:22;50.80;15.70
72814;DHT22;60945;48.516;-2.768;2022-07-10T13:28:47;51.60;15.50
72814;DHT22;60945;48.516;-2.768;2022-07-10T13:31:13;51.50;15.30
72814;DHT22;60945;48.516;-2.768;2022-07-10T13:33:38;52.00;14.90
72814;DHT22;60945;48.516;-2.768;2022-07-10T13:36:04;51.20;15.20
72814;DHT22;60945;48.516;-2.768;2022-07-10T13:38:30;51.50;15.10
72814;DHT22;60945;48.516;-2.768;2022-07-10T13:40:57;51.20;14.90
72814;DHT22;60945;48.516;-2.768;2022-07-10T13:43:23;50.90;15.20
72814;DHT22;60945;48.516;-2.768;2022-07-10T13:45:57;49.50;15.40
72814;DHT22;60945;48.516;-2.768;2022-07-10T13:48:22;49.80;15.50
72814;DHT22;60945;48.516;-2.768;2022-07-10T13:50:48;49.70;15.60
72814;DHT22;60945;48.516;-2.768;2022-07-10T13:53:16;49.80;15.50
72814;DHT22;60945;48.516;-2.768;2022-07-10T13:55:42;49.40;15.70
72814;DHT22;60945;48.516;-2.768;2022-07-10T13:58:08;50.10;15.40
72814;DHT22;60945;48.516;-2.768;2022-07-10T14:00:34;50.50;15.10
72814;DHT22;60945;48.516;-2.768;2022-07-10T14:03:01;49.90;15.10
72814;DHT22;60945;48.516;-2.768;2022-07-10T14:05:27;50.50;15.00
72814;DHT22;60945;48.516;-2.768;2022-07-10T14:07:52;51.50;14.20
72814;DHT22;60945;48.516;-2.768;2022-07-10T14:10:18;50.30;14.80
72814;DHT22;60945;48.516;-2.768;2022-07-10T14:12:44;50.60;14.80
72814;DHT22;60945;48.516;-2.768;2022-07-10T14:15:10;50.90;14.80
72814;DHT22;60945;48.516;-2.768;2022-07-10T14:17:35;52.40;14.30
72814;DHT22;60945;48.516;-2.768;2022-07-10T14:20:01;51.90;14.40
72814;DHT22;60945;48.516;-2.768;2022-07-10T14:22:27;51.20;14.90
72814;DHT22;60945;48.516;-2.768;2022-07-10T14:24:55;51.80;14.50
72814;DHT22;60945;48.516;-2.768;2022-07-10T14:27:22;52.10;14.40
72814;DHT22;60945;48.516;-2.768;2022-07-10T14:29:49;53.30;14.00
72814;DHT22;60945;48.516;-2.768;2022-07-10T14:32:15;51.90;14.60
72814;DHT22;60945;48.516;-2.768;2022-07-10T14:34:41;51.40;14.70
72814;DHT22;60945;48.516;-2.768;2022-07-10T14:37:06;50.80;15.10
72814;DHT22;60945;48.516;-2.768;2022-07-10T14:39:32;52.00;14.70
72814;DHT22;60945;48.516;-2.768;2022-07-10T14:41:57;51.20;15.00
72814;DHT22;60945;48.516;-2.768;2022-07-10T14:44:23;51.40;15.10
72814;DHT22;60945;48.516;-2.768;2022-07-10T14:46:49;51.60;15.00
72814;DHT22;60945;48.516;-2.768;2022-07-10T14:49:14;50.40;15.30
72814;DHT22;60945;48.516;-2.768;2022-07-10T14:51:40;49.80;15.50
72814;DHT22;60945;48.516;-2.768;2022-07-10T14:54:06;49.60;15.70
72814;DHT22;60945;48.516;-2.768;2022-07-10T14:56:32;49.60;15.80
72814;DHT22;60945;48.516;-2.768;2022-07-10T14:58:57;48.60;16.20
72814;DHT22;60945;48.516;-2.768;2022-07-10T15:01:23;47.30;17.00
72814;DHT22;60945;48.516;-2.768;2022-07-10T15:03:48;47.00;17.40
72814;DHT22;60945;48.516;-2.768;2022-07-10T15:06:14;46.10;17.90
72814;DHT22;60945;48.516;-2.768;2022-07-10T15:08:40;46.50;18.10
72814;DHT22;60945;48.516;-2.768;2022-07-10T15:11:05;45.00;18.80
72814;DHT22;60945;48.516;-2.768;2022-07-10T15:13:32;44.50;18.90
72814;DHT22;60945;48.516;-2.768;2022-07-10T15:15:58;44.20;19.20
72814;DHT22;60945;48.516;-2.768;2022-07-10T15:18:24;43.30;19.80
72814;DHT22;60945;48.516;-2.768;2022-07-10T15:20:50;43.60;19.90
72814;DHT22;60945;48.516;-2.768;2022-07-10T15:23:15;43.70;19.90
72814;DHT22;60945;48.516;-2.768;2022-07-10T15:25:41;44.00;19.40
72814;DHT22;60945;48.516;-2.768;2022-07-10T15:28:08;43.80;19.40
72814;DHT22;60945;48.516;-2.768;2022-07-10T15:30:35;43.40;19.80
72814;DHT22;60945;48.516;-2.768;2022-07-10T15:33:05;42.30;20.70
72814;DHT22;60945;48.516;-2.768;2022-07-10T15:35:33;41.60;21.40
72814;DHT22;60945;48.516;-2.768;2022-07-10T15:37:59;41.40;21.50
72814;DHT22;60945;48.516;-2.768;2022-07-10T15:40:29;41.40;21.50